Time,TemperatureF,DewpointF,PressureIn,WindDirection,WindDirectionDegrees,WindSpeedMPH,WindSpeedGustMPH,Humidity,HourlyPrecipIn,Conditions,Clouds,dailyrainin,SolarRadiationWatts/m^2,SoftwareType,DateUTC
2013-08-25 00:03:00,-999.0,-99.9,-100.00,NE,43,6.0,16.0,-999,-99.99,,,-99.99,0.000000,,2013-08-25 04:03:00,
2013-08-25 00:14:00,75.0,58.0,-100.00,NE,43,6.0,16.0,56,0.00,,,0.19,0.000000,,2013-08-25 04:14:00,
2013-08-25 00:54:00,75.0,59.0,-100.00,NE,54,6.0,18.0,57,0.00,,,0.19,0.000000,,2013-08-25 04:54:00,
2013-08-25 01:03:00,75.0,59.0,-100.00,NE,54,6.0,18.0,57,0.00,,,0.19,0.000000,,2013-08-25 05:03:00,
2013-08-25 01:12:00,75.0,59.0,-100.00,NE,54,6.0,18.0,57,0.00,,,0.19,0.000000,,2013-08-25 05:12:00,
2013-08-25 01:23:00,75.0,59.0,-100.00,NE,54,6.0,18.0,57,0.00,,,0.19,0.000000,,2013-08-25 05:23:00,
2013-08-25 01:52:00,75.0,57.0,-100.00,ENE,66,6.0,21.0,54,0.00,,,0.19,0.000000,,2013-08-25 05:52:00,
2013-08-25 02:03:00,75.0,57.0,-100.00,ENE,66,6.0,21.0,54,0.00,,,0.19,0.000000,,2013-08-25 06:03:00,
2013-08-25 02:12:00,75.0,57.0,-100.00,ENE,66,6.0,21.0,54,0.00,,,0.19,0.000000,,2013-08-25 06:12:00,
2013-08-25 02:22:00,75.0,57.0,-100.00,ENE,66,6.0,21.0,54,0.00,,,0.19,0.000000,,2013-08-25 06:22:00,
2013-08-25 02:52:00,75.0,58.0,-100.00,ENE,68,12.0,23.0,55,0.00,,,0.19,0.000000,,2013-08-25 06:52:00,
2013-08-25 03:01:00,75.0,58.0,-100.00,ENE,68,12.0,23.0,55,0.00,,,0.19,0.000000,,2013-08-25 07:01:00,
2013-08-25 03:12:00,75.0,58.0,-100.00,ENE,68,12.0,23.0,55,0.00,,,0.19,0.000000,,2013-08-25 07:12:00,
2013-08-25 03:22:00,75.0,58.0,-100.00,ENE,68,12.0,23.0,55,0.00,,,0.19,0.000000,,2013-08-25 07:22:00,
2013-08-25 03:52:00,75.0,58.0,-100.00,ENE,68,13.0,24.0,55,0.00,,,0.01,0.000000,,2013-08-25 07:52:00,
2013-08-25 04:02:00,75.0,58.0,-100.00,ENE,68,13.0,24.0,55,0.00,,,0.01,0.000000,,2013-08-25 08:02:00,
2013-08-25 04:12:00,75.0,58.0,-100.00,ENE,68,13.0,24.0,55,0.00,,,0.01,0.000000,,2013-08-25 08:12:00,
2013-08-25 04:21:00,75.0,58.0,-100.00,ENE,68,13.0,24.0,55,0.00,,,0.01,0.000000,,2013-08-25 08:21:00,
2013-08-25 04:52:00,74.0,57.0,-100.00,ENE,69,10.0,24.0,56,0.00,,,0.01,0.000000,,2013-08-25 08:52:00,
2013-08-25 05:02:00,74.0,57.0,-100.00,ENE,69,10.0,24.0,56,0.00,,,0.01,0.000000,,2013-08-25 09:02:00,
2013-08-25 05:11:00,74.0,57.0,-100.00,ENE,69,10.0,24.0,56,0.00,,,0.01,0.000000,,2013-08-25 09:11:00,
2013-08-25 05:22:00,74.0,57.0,-100.00,ENE,69,10.0,24.0,56,0.00,,,0.01,0.000000,,2013-08-25 09:22:00,
2013-08-25 05:55:00,74.0,58.0,-100.00,ENE,70,11.0,23.0,57,0.00,,,0.00,0.000000,,2013-08-25 09:55:00,
2013-08-25 06:03:00,74.0,58.0,-100.00,ENE,70,11.0,23.0,57,0.00,,,0.00,0.000000,,2013-08-25 10:03:00,
2013-08-25 06:12:00,74.0,58.0,-100.00,ENE,70,11.0,23.0,57,0.00,,,0.00,0.000000,,2013-08-25 10:12:00,
2013-08-25 06:23:00,74.0,58.0,-100.00,ENE,70,11.0,23.0,57,0.00,,,0.00,0.000000,,2013-08-25 10:23:00,
2013-08-25 06:53:00,73.0,56.0,-100.00,ENE,69,8.0,22.0,55,0.00,,,0.00,0.000000,,2013-08-25 10:53:00,
2013-08-25 07:03:00,73.0,56.0,-100.00,ENE,69,8.0,22.0,55,0.00,,,0.00,0.000000,,2013-08-25 11:03:00,
2013-08-25 07:12:00,73.0,56.0,-100.00,ENE,69,8.0,22.0,55,0.00,,,0.00,0.000000,,2013-08-25 11:12:00,
2013-08-25 07:22:00,73.0,56.0,-100.00,ENE,69,8.0,22.0,55,0.00,,,0.00,0.000000,,2013-08-25 11:22:00,
2013-08-25 07:52:00,74.0,57.0,-100.00,ENE,57,7.0,16.0,55,0.00,,,0.00,35.000000,,2013-08-25 11:52:00,
2013-08-25 08:02:00,74.0,57.0,-100.00,ENE,57,7.0,16.0,55,0.00,,,0.00,35.000000,,2013-08-25 12:02:00,
2013-08-25 08:12:00,74.0,57.0,-100.00,ENE,57,7.0,16.0,55,0.00,,,0.00,35.000000,,2013-08-25 12:12:00,
2013-08-25 08:22:00,74.0,57.0,-100.00,ENE,57,7.0,16.0,55,0.00,,,0.00,35.000000,,2013-08-25 12:22:00,
2013-08-25 08:52:00,75.0,58.0,-100.00,NE,46,5.0,15.0,56,0.00,,,0.00,89.000000,,2013-08-25 12:52:00,
2013-08-25 09:02:00,75.0,58.0,-100.00,NE,46,5.0,15.0,56,0.00,,,0.00,89.000000,,2013-08-25 13:02:00,
2013-08-25 09:12:00,75.0,58.0,-100.00,NE,46,5.0,15.0,56,0.00,,,0.00,89.000000,,2013-08-25 13:12:00,
2013-08-25 09:22:00,75.0,58.0,-100.00,NE,46,5.0,15.0,56,0.00,,,0.00,89.000000,,2013-08-25 13:22:00,
2013-08-25 09:25:00,76.0,59.0,-100.00,NE,34,6.0,15.0,55,0.00,,,0.00,86.000000,,2013-08-25 13:25:00,
2013-08-25 09:52:00,76.0,59.0,-100.00,NE,34,6.0,15.0,55,0.00,,,0.00,86.000000,,2013-08-25 13:52:00,
2013-08-25 10:02:00,76.0,59.0,-100.00,NE,34,6.0,15.0,55,0.00,,,0.00,86.000000,,2013-08-25 14:02:00,
2013-08-25 10:11:00,76.0,59.0,-100.00,NE,34,6.0,15.0,55,0.00,,,0.00,86.000000,,2013-08-25 14:11:00,
2013-08-25 10:52:00,78.0,61.0,-100.00,NNE,33,6.0,17.0,55,0.00,,,0.00,472.000000,,2013-08-25 14:52:00,
2013-08-25 11:01:00,78.0,61.0,-100.00,NNE,33,6.0,17.0,55,0.00,,,0.00,472.000000,,2013-08-25 15:01:00,
2013-08-25 11:11:00,78.0,61.0,-100.00,NNE,33,6.0,17.0,55,0.00,,,0.00,472.000000,,2013-08-25 15:11:00,
2013-08-25 11:23:00,78.0,61.0,-100.00,NNE,33,6.0,17.0,55,0.00,,,0.00,472.000000,,2013-08-25 15:23:00,
2013-08-25 11:55:00,79.0,61.0,-100.00,NE,37,6.0,14.0,54,0.00,,,0.00,752.000000,,2013-08-25 15:55:00,
2013-08-25 12:05:00,79.0,61.0,-100.00,NE,37,6.0,14.0,54,0.00,,,0.00,752.000000,,2013-08-25 16:05:00,
2013-08-25 12:14:00,79.0,61.0,-100.00,NE,37,6.0,14.0,54,0.00,,,0.00,752.000000,,2013-08-25 16:14:00,
2013-08-25 12:24:00,79.0,61.0,-100.00,NE,37,6.0,14.0,54,0.00,,,0.00,752.000000,,2013-08-25 16:24:00,
2013-08-25 12:54:00,79.0,61.0,-100.00,NE,39,6.0,15.0,55,0.00,,,0.00,866.000000,,2013-08-25 16:54:00,
2013-08-25 13:04:00,79.0,61.0,-100.00,NE,39,6.0,15.0,55,0.00,,,0.00,866.000000,,2013-08-25 17:04:00,
2013-08-25 13:12:00,79.0,61.0,-100.00,NE,39,6.0,15.0,55,0.00,,,0.00,866.000000,,2013-08-25 17:12:00,
2013-08-25 13:23:00,79.0,61.0,-100.00,NE,39,6.0,15.0,55,0.00,,,0.00,866.000000,,2013-08-25 17:23:00,
2013-08-25 13:53:00,79.0,61.0,-100.00,NE,40,7.0,16.0,55,0.00,,,0.00,881.000000,,2013-08-25 17:53:00,
2013-08-25 14:02:00,79.0,61.0,-100.00,NE,40,7.0,16.0,55,0.00,,,0.00,881.000000,,2013-08-25 18:02:00,
2013-08-25 14:12:00,79.0,61.0,-100.00,NE,40,7.0,16.0,55,0.00,,,0.00,881.000000,,2013-08-25 18:12:00,
2013-08-25 14:22:00,79.0,61.0,-100.00,NE,40,7.0,16.0,55,0.00,,,0.00,881.000000,,2013-08-25 18:22:00,
2013-08-25 14:52:00,79.0,61.0,-100.00,NE,40,6.0,17.0,55,0.00,,,0.00,683.000000,,2013-08-25 18:52:00,
2013-08-25 15:02:00,79.0,61.0,-100.00,NE,40,6.0,17.0,55,0.00,,,0.00,683.000000,,2013-08-25 19:02:00,
2013-08-25 15:12:00,79.0,61.0,-100.00,NE,40,6.0,17.0,55,0.00,,,0.00,683.000000,,2013-08-25 19:12:00,
2013-08-25 15:22:00,79.0,61.0,-100.00,NE,40,6.0,17.0,55,0.00,,,0.00,683.000000,,2013-08-25 19:22:00,
2013-08-25 15:53:00,79.0,61.0,-100.00,NE,47,6.0,18.0,55,0.00,,,0.00,779.000000,,2013-08-25 19:53:00,
2013-08-25 16:03:00,79.0,61.0,-100.00,NE,47,6.0,18.0,55,0.00,,,0.00,779.000000,,2013-08-25 20:03:00,
2013-08-25 16:13:00,79.0,61.0,-100.00,NE,47,6.0,18.0,55,0.00,,,0.00,779.000000,,2013-08-25 20:13:00,
2013-08-25 16:23:00,79.0,61.0,-100.00,NE,47,6.0,18.0,55,0.00,,,0.00,779.000000,,2013-08-25 20:23:00,
2013-08-25 16:53:00,79.0,61.0,-100.00,NE,53,6.0,16.0,55,0.00,,,0.00,698.000000,,2013-08-25 20:53:00,
2013-08-25 17:02:00,79.0,61.0,-100.00,NE,53,6.0,16.0,55,0.00,,,0.00,698.000000,,2013-08-25 21:02:00,
2013-08-25 17:12:00,79.0,61.0,-100.00,NE,53,6.0,16.0,55,0.00,,,0.00,698.000000,,2013-08-25 21:12:00,
2013-08-25 17:22:00,79.0,61.0,-100.00,NE,53,6.0,16.0,55,0.00,,,0.00,698.000000,,2013-08-25 21:22:00,
2013-08-25 17:55:00,76.0,60.0,-100.00,NE,46,6.0,16.0,57,0.00,,,0.00,416.000000,,2013-08-25 21:55:00,
2013-08-25 18:03:00,76.0,60.0,-100.00,NE,46,6.0,16.0,57,0.00,,,0.00,416.000000,,2013-08-25 22:03:00,
2013-08-25 18:14:00,76.0,60.0,-100.00,NE,46,6.0,16.0,57,0.00,,,0.00,416.000000,,2013-08-25 22:14:00,
2013-08-25 18:24:00,76.0,60.0,-100.00,NE,46,6.0,16.0,57,0.00,,,0.00,416.000000,,2013-08-25 22:24:00,
2013-08-25 18:54:00,76.0,60.0,-100.00,NE,42,5.0,14.0,58,0.00,,,0.00,139.000000,,2013-08-25 22:54:00,
2013-08-25 19:03:00,76.0,60.0,-100.00,NE,42,5.0,14.0,58,0.00,,,0.00,139.000000,,2013-08-25 23:03:00,
2013-08-25 19:12:00,76.0,60.0,-100.00,NE,42,5.0,14.0,58,0.00,,,0.00,139.000000,,2013-08-25 23:12:00,
2013-08-25 19:23:00,76.0,60.0,-100.00,NE,42,5.0,14.0,58,0.00,,,0.00,139.000000,,2013-08-25 23:23:00,
2013-08-25 19:53:00,74.0,58.0,-100.00,NNE,31,7.0,16.0,58,0.00,,,0.00,45.000000,,2013-08-25 23:53:00,
2013-08-25 20:02:00,74.0,58.0,-100.00,NNE,31,7.0,16.0,58,0.00,,,0.00,45.000000,,2013-08-26 00:02:00,
2013-08-25 20:11:00,74.0,58.0,-100.00,NNE,31,7.0,16.0,58,0.00,,,0.00,45.000000,,2013-08-26 00:11:00,
2013-08-25 20:22:00,74.0,58.0,-100.00,NNE,31,7.0,16.0,58,0.00,,,0.00,45.000000,,2013-08-26 00:22:00,
2013-08-25 20:52:00,73.0,57.0,-100.00,NE,36,5.0,13.0,58,0.00,,,0.00,3.000000,,2013-08-26 00:52:00,
2013-08-25 21:02:00,73.0,57.0,-100.00,NE,36,5.0,13.0,58,0.00,,,0.00,3.000000,,2013-08-26 01:02:00,
2013-08-25 21:11:00,73.0,57.0,-100.00,NE,36,5.0,13.0,58,0.00,,,0.00,3.000000,,2013-08-26 01:11:00,
2013-08-25 21:22:00,73.0,57.0,-100.00,NE,36,5.0,13.0,58,0.00,,,0.00,3.000000,,2013-08-26 01:22:00,
2013-08-25 21:52:00,73.0,57.0,-100.00,NE,43,4.0,14.0,57,0.00,,,0.00,0.000000,,2013-08-26 01:52:00,
2013-08-25 22:02:00,73.0,57.0,-100.00,NE,43,4.0,14.0,57,0.00,,,0.00,0.000000,,2013-08-26 02:02:00,
2013-08-25 22:11:00,73.0,57.0,-100.00,NE,43,4.0,14.0,57,0.00,,,0.00,0.000000,,2013-08-26 02:11:00,
2013-08-25 22:22:00,73.0,57.0,-100.00,NE,43,4.0,14.0,57,0.00,,,0.00,0.000000,,2013-08-26 02:22:00,
2013-08-25 22:52:00,73.0,57.0,-100.00,NE,52,5.0,13.0,58,0.00,,,0.00,0.000000,,2013-08-26 02:52:00,
2013-08-25 23:02:00,73.0,57.0,-100.00,NE,52,5.0,13.0,58,0.00,,,0.00,0.000000,,2013-08-26 03:02:00,
2013-08-25 23:11:00,73.0,57.0,-100.00,NE,52,5.0,13.0,58,0.00,,,0.00,0.000000,,2013-08-26 03:11:00,
2013-08-25 23:22:00,73.0,57.0,-100.00,NE,52,5.0,13.0,58,0.00,,,0.00,0.000000,,2013-08-26 03:22:00,
2013-08-25 23:56:00,73.0,57.0,-100.00,ENE,63,4.0,11.0,58,0.00,,,0.00,0.000000,,2013-08-26 03:56:00,